Time;durP1;ratioP1;P1;durP2;ratioP2;P2;SDS_P1;SDS_P2;PMS_P1;PMS_P2;Temp;Humidity;BMP_temperature;BMP_pressure;BME280_temperature;BME280_humidity;BME280_pressure;Samples;Min_cycle;Max_cycle;Signal;HPM_P1;HPM_P2
2021/03/01 00:01:06;;;;;;;16.98;7.18;;;3.20;99.90;;;;;;5032647;28;20502;-61
2021/03/01 00:03:32;;;;;;;17.55;6.60;;;3.20;99.90;;;;;;5031767;28;20052;-61
2021/03/01 00:05:59;;;;;;;18.35;7.32;;;3.20;99.90;;;;;;5031657;28;20036;-60
2021/03/01 00:08:24;;;;;;;13.95;7.05;;;3.20;99.90;;;;;;5030397;28;20053;-60
2021/03/01 00:10:50;;;;;;;13.98;6.68;;;3.20;99.90;;;;;;5031751;28;20509;-59
2021/03/01 00:13:16;;;;;;;15.70;8.07;;;3.20;99.90;;;;;;5031827;28;20065;-60
2021/03/01 00:15:43;;;;;;;14.00;7.10;;;3.20;99.90;;;;;;5031959;28;20116;-61
2021/03/01 00:18:08;;;;;;;16.83;7.97;;;3.20;99.90;;;;;;5031179;28;20126;-60
2021/03/01 00:20:34;;;;;;;15.38;8.15;;;3.30;99.90;;;;;;5031457;28;20483;-61
2021/03/01 00:23:00;;;;;;;17.92;8.68;;;3.50;99.90;;;;;;5030952;28;20052;-59
2021/03/01 00:25:25;;;;;;;15.05;8.05;;;3.80;99.90;;;;;;5031938;28;20479;-62
2021/03/01 00:27:51;;;;;;;16.40;8.85;;;3.80;99.90;;;;;;5031782;28;20083;-62
2021/03/01 00:30:17;;;;;;;16.30;8.85;;;3.80;99.90;;;;;;5031684;28;20578;-60
2021/03/01 00:32:43;;;;;;;17.17;9.70;;;3.80;99.90;;;;;;5023738;28;20036;-59
2021/03/01 00:35:10;;;;;;;18.95;10.30;;;3.70;99.90;;;;;;5032202;28;20112;-59
2021/03/01 00:37:36;;;;;;;16.42;9.88;;;3.70;99.90;;;;;;5031320;28;20120;-60
2021/03/01 00:40:05;;;;;;;25.73;10.20;;;3.80;99.90;;;;;;5031196;28;20491;-60
2021/03/01 00:42:31;;;;;;;20.05;10.35;;;3.70;99.90;;;;;;5030912;28;20075;-58
2021/03/01 00:44:56;;;;;;;22.33;11.30;;;3.60;99.90;;;;;;5032367;28;20029;-61
2021/03/01 00:47:22;;;;;;;26.67;11.75;;;3.70;99.90;;;;;;5030075;28;20025;-60
2021/03/01 00:49:48;;;;;;;18.30;11.30;;;3.60;99.90;;;;;;5030736;28;20037;-61
2021/03/01 00:52:13;;;;;;;21.45;12.00;;;3.60;99.90;;;;;;5031057;28;20029;-59
2021/03/01 00:54:39;;;;;;;21.88;11.98;;;3.60;99.90;;;;;;5030644;28;20325;-59
2021/03/01 00:57:05;;;;;;;19.90;11.55;;;3.70;99.90;;;;;;5031859;28;20403;-59
2021/03/01 00:59:31;;;;;;;25.70;12.63;;;3.70;99.90;;;;;;5030844;28;20403;-61
2021/03/01 01:01:57;;;;;;;16.80;10.73;;;3.70;99.90;;;;;;5030809;28;20033;-60
2021/03/01 01:04:23;;;;;;;21.38;10.90;;;3.70;99.90;;;;;;5029994;28;20033;-58
2021/03/01 01:06:49;;;;;;;17.35;10.63;;;3.80;99.90;;;;;;5013914;28;20033;-59
2021/03/01 01:09:14;;;;;;;17.55;11.13;;;3.70;99.90;;;;;;5030665;28;20033;-57
2021/03/01 01:11:40;;;;;;;18.80;10.70;;;3.80;99.90;;;;;;5031740;28;20030;-58
2021/03/01 01:14:06;;;;;;;22.15;10.00;;;3.90;99.90;;;;;;5019029;28;20021;-59
2021/03/01 01:16:32;;;;;;;17.60;9.93;;;3.90;99.90;;;;;;5031281;28;20040;-57
2021/03/01 01:18:58;;;;;;;19.63;9.80;;;3.90;99.90;;;;;;5030067;28;20066;-60
2021/03/01 01:21:24;;;;;;;17.55;10.45;;;3.80;99.90;;;;;;5030946;28;20033;-59
2021/03/01 01:23:49;;;;;;;21.30;10.98;;;3.80;99.90;;;;;;5030094;28;20041;-60
2021/03/01 01:26:15;;;;;;;22.25;11.48;;;3.80;99.90;;;;;;5031031;28;20033;-60
2021/03/01 01:28:41;;;;;;;18.52;9.98;;;3.90;99.90;;;;;;5030366;28;20034;-60
2021/03/01 01:31:07;;;;;;;17.85;10.45;;;3.90;99.90;;;;;;5030783;28;20029;-60
2021/03/01 01:33:33;;;;;;;17.48;10.63;;;3.90;99.90;;;;;;5029891;28;20026;-61
2021/03/01 01:35:58;;;;;;;18.20;10.30;;;3.90;99.90;;;;;;5031353;28;20112;-60
2021/03/01 01:38:24;;;;;;;18.42;10.60;;;4.00;99.90;;;;;;5030337;28;20045;-59
2021/03/01 01:40:51;;;;;;;24.00;12.68;;;3.90;99.90;;;;;;5030449;28;20461;-60
2021/03/01 01:43:16;;;;;;;22.05;11.65;;;4.00;99.90;;;;;;5030028;28;20079;-61
2021/03/01 01:45:42;;;;;;;17.20;9.80;;;4.10;99.90;;;;;;5031506;28;20037;-62
2021/03/01 01:48:08;;;;;;;17.77;10.88;;;4.00;99.90;;;;;;5028965;28;20029;-62
2021/03/01 01:50:34;;;;;;;18.85;11.13;;;4.00;99.90;;;;;;5031047;28;20100;-61
2021/03/01 01:53:00;;;;;;;22.70;11.77;;;4.00;99.90;;;;;;5029795;28;20032;-58
2021/03/01 01:55:26;;;;;;;23.80;10.43;;;4.00;99.90;;;;;;5013327;28;20033;-57
2021/03/01 01:57:52;;;;;;;22.65;10.38;;;4.00;99.90;;;;;;5030959;28;20095;-60
2021/03/01 02:03:15;;;;;;;16.20;10.48;;;4.00;99.90;;;;;;5030695;28;20041;-61
2021/03/01 02:05:42;;;;;;;19.42;10.80;;;4.00;99.90;;;;;;5031023;28;20041;-58
2021/03/01 02:08:13;;;;;;;22.48;11.20;;;4.00;99.90;;;;;;5029374;28;20464;-59
2021/03/01 02:11:02;;;;;;;21.90;11.00;;;4.00;99.90;;;;;;5030103;28;20382;-59
2021/03/01 02:13:58;;;;;;;19.45;10.75;;;4.10;99.90;;;;;;5029743;28;20100;-61
2021/03/01 02:16:26;;;;;;;;;;;4.10;99.90;;;;;;5008197;28;20116;-59
2021/03/01 02:18:52;;;;;;;20.25;10.70;;;4.10;99.90;;;;;;5029255;28;20453;-58
2021/03/01 02:21:18;;;;;;;17.38;10.57;;;4.20;99.90;;;;;;5030625;28;20045;-59
2021/03/01 02:23:43;;;;;;;25.02;10.63;;;4.20;99.90;;;;;;5029979;28;20030;-57
2021/03/01 02:26:18;;;;;;;17.33;11.00;;;4.10;99.90;;;;;;5030619;28;20040;-60
2021/03/01 02:28:48;;;;;;;13.87;7.50;;;4.20;99.90;;;;;;5029817;28;20042;-60
2021/03/01 02:31:16;;;;;;;16.83;9.82;;;4.20;99.90;;;;;;5030471;28;20268;-62
2021/03/01 02:33:46;;;;;;;16.92;10.05;;;4.20;99.90;;;;;;5033333;28;20028;-59
2021/03/01 02:36:20;;;;;;;23.55;10.70;;;4.20;99.90;;;;;;5034213;28;20048;-59
2021/03/01 02:38:49;;;;;;;18.60;10.32;;;4.20;99.90;;;;;;5014012;28;20121;-61
2021/03/01 02:41:16;;;;;;;18.75;9.75;;;4.20;99.90;;;;;;5033730;28;20037;-58
2021/03/01 02:43:42;;;;;;;23.35;11.10;;;4.10;99.90;;;;;;5033327;28;20022;-60
2021/03/01 02:46:10;;;;;;;17.27;10.50;;;4.10;99.90;;;;;;5034152;28;20033;-59
2021/03/01 02:48:37;;;;;;;18.02;10.63;;;4.20;99.90;;;;;;5031457;28;20898;-59
2021/03/01 02:51:04;;;;;;;17.08;10.27;;;4.20;99.90;;;;;;5033550;28;20025;-58
2021/03/01 02:53:31;;;;;;;18.25;10.57;;;4.30;99.90;;;;;;5032415;28;20033;-60
2021/03/01 02:55:59;;;;;;;20.83;9.93;;;4.30;99.90;;;;;;5033878;28;20057;-59
2021/03/01 02:58:27;;;;;;;20.10;10.05;;;4.30;99.90;;;;;;5033400;28;20471;-62
2021/03/01 03:00:54;;;;;;;22.90;11.20;;;4.30;99.90;;;;;;5033830;28;20056;-60
2021/03/01 03:03:22;;;;;;;22.15;10.88;;;4.30;99.90;;;;;;5033354;28;20101;-58
2021/03/01 03:05:48;;;;;;;16.67;9.80;;;4.30;99.90;;;;;;5033304;28;20071;-58
2021/03/01 03:08:14;;;;;;;21.77;11.18;;;4.30;99.90;;;;;;5033936;28;20136;-59
2021/03/01 03:10:41;;;;;;;18.58;11.68;;;4.30;99.90;;;;;;5032256;28;20033;-60
2021/03/01 03:13:09;;;;;;;17.67;10.30;;;4.30;99.90;;;;;;5033401;28;20025;-58
2021/03/01 03:15:36;;;;;;;19.30;10.75;;;4.30;99.90;;;;;;5033050;28;20407;-60
2021/03/01 03:18:03;;;;;;;19.63;11.18;;;4.30;99.90;;;;;;5032995;28;20029;-61
2021/03/01 03:20:29;;;;;;;17.00;9.80;;;4.40;99.90;;;;;;5032315;28;20064;-61
2021/03/01 03:22:55;;;;;;;16.98;11.32;;;4.40;99.90;;;;;;5033240;28;20033;-57
2021/03/01 03:25:21;;;;;;;22.77;11.73;;;4.30;99.90;;;;;;5032838;28;20128;-59
2021/03/01 03:27:47;;;;;;;19.60;11.13;;;4.40;99.90;;;;;;5032844;28;20112;-59
2021/03/01 03:30:18;;;;;;;19.83;10.50;;;4.40;99.90;;;;;;5032393;28;20021;-58
2021/03/01 03:32:44;;;;;;;21.05;11.27;;;4.40;99.90;;;;;;5033280;28;20039;-60
2021/03/01 03:35:11;;;;;;;21.80;11.60;;;4.50;99.90;;;;;;5014453;28;20057;-61
2021/03/01 03:38:06;;;;;;;18.02;10.77;;;4.50;99.90;;;;;;5033052;28;20021;-59
2021/03/01 03:40:33;;;;;;;22.45;10.85;;;4.40;99.90;;;;;;5008717;28;20403;-60
2021/03/01 03:43:00;;;;;;;19.98;11.65;;;4.40;99.90;;;;;;5032825;28;20045;-60
2021/03/01 03:45:26;;;;;;;23.63;11.40;;;4.40;99.90;;;;;;5032048;28;20030;-61
2021/03/01 03:47:55;;;;;;;24.13;11.60;;;4.40;99.90;;;;;;5031902;28;20095;-58
2021/03/01 03:50:23;;;;;;;24.88;11.40;;;4.50;99.90;;;;;;5030363;28;20033;-60
2021/03/01 03:52:56;;;;;;;26.40;12.70;;;4.40;99.90;;;;;;5032357;28;20478;-59
2021/03/01 03:55:23;;;;;;;19.08;12.25;;;4.40;99.90;;;;;;5032172;28;20063;-57
2021/03/01 03:58:12;;;;;;;20.35;12.10;;;4.50;99.90;;;;;;5032827;28;20112;-59
2021/03/01 04:00:39;;;;;;;19.10;12.57;;;4.50;99.90;;;;;;5031450;28;20061;-59
2021/03/01 04:03:12;;;;;;;24.67;12.55;;;4.50;99.90;;;;;;5031126;28;20104;-59
2021/03/01 04:05:43;;;;;;;22.45;12.45;;;4.50;99.90;;;;;;5032181;28;20039;-62
2021/03/01 04:08:13;;;;;;;27.17;12.32;;;4.50;99.90;;;;;;5032291;28;20079;-59
2021/03/01 04:10:42;;;;;;;22.02;12.40;;;4.50;99.90;;;;;;5031107;28;20099;-61
2021/03/01 04:13:10;;;;;;;24.15;12.40;;;4.60;99.90;;;;;;5032522;28;20068;-60
2021/03/01 04:15:40;;;;;;;20.10;12.40;;;4.60;99.90;;;;;;5031853;28;20029;-63
2021/03/01 04:18:06;;;;;;;21.00;12.13;;;4.60;99.90;;;;;;5031400;28;20026;-57
2021/03/01 04:20:35;;;;;;;31.48;12.00;;;4.70;99.90;;;;;;5033530;28;20057;-61
2021/03/01 04:23:01;;;;;;;24.80;12.68;;;4.80;99.90;;;;;;5031611;28;20037;-59
2021/03/01 04:25:28;;;;;;;21.27;11.73;;;4.80;99.90;;;;;;5031226;28;20032;-61
2021/03/01 04:27:54;;;;;;;21.80;12.85;;;4.80;99.90;;;;;;5032091;28;20065;-60
2021/03/01 04:30:21;;;;;;;30.65;13.05;;;4.80;99.90;;;;;;5030890;28;20491;-60
2021/03/01 04:32:48;;;;;;;21.52;13.02;;;4.80;99.90;;;;;;5032242;28;20084;-61
2021/03/01 04:35:17;;;;;;;23.13;13.98;;;4.70;99.90;;;;;;5031142;28;20087;-62
2021/03/01 04:37:43;;;;;;;25.85;13.60;;;4.70;99.90;;;;;;5031938;28;20032;-61
2021/03/01 04:40:10;;;;;;;22.48;13.63;;;4.90;99.90;;;;;;5030327;28;20060;-62
2021/03/01 04:42:37;;;;;;;24.48;13.63;;;4.80;99.90;;;;;;5031857;28;20029;-62
2021/03/01 04:45:05;;;;;;;31.15;14.05;;;4.90;99.90;;;;;;5030830;28;20091;-60
2021/03/01 04:47:32;;;;;;;24.92;13.93;;;4.90;99.90;;;;;;5031941;28;20032;-61
2021/03/01 04:49:59;;;;;;;22.67;14.98;;;4.90;99.90;;;;;;5029657;28;20080;-60
2021/03/01 04:52:26;;;;;;;27.48;15.38;;;4.80;99.90;;;;;;5021320;28;20518;-59
2021/03/01 04:54:53;;;;;;;28.15;16.20;;;4.90;99.90;;;;;;5030687;28;20479;-61
2021/03/01 04:57:19;;;;;;;26.13;15.73;;;4.90;99.90;;;;;;5031071;28;20127;-58
2021/03/01 04:59:46;;;;;;;26.25;15.70;;;4.90;99.90;;;;;;5030382;28;20467;-60
2021/03/01 05:02:13;;;;;;;28.10;15.88;;;4.90;99.90;;;;;;5032058;28;20040;-58
2021/03/01 05:04:40;;;;;;;30.63;18.38;;;4.90;99.90;;;;;;5030507;28;20061;-61
2021/03/01 05:07:07;;;;;;;29.77;16.83;;;4.90;99.90;;;;;;5031530;28;20037;-59
2021/03/01 05:09:35;;;;;;;37.03;19.45;;;4.90;99.90;;;;;;5030321;28;20765;-60
2021/03/01 05:12:01;;;;;;;37.78;18.67;;;4.90;99.90;;;;;;5031256;28;20029;-62
2021/03/01 05:14:27;;;;;;;32.65;19.98;;;4.90;99.90;;;;;;5030427;28;20037;-57
2021/03/01 05:16:53;;;;;;;39.83;20.80;;;4.90;99.90;;;;;;5031648;28;20029;-60
2021/03/01 05:19:18;;;;;;;39.58;20.52;;;4.90;99.90;;;;;;5029610;28;20667;-60
2021/03/01 05:21:44;;;;;;;36.90;20.13;;;4.90;99.90;;;;;;5031028;28;20041;-60
2021/03/01 05:24:10;;;;;;;40.33;21.55;;;5.00;99.90;;;;;;5031011;28;20409;-59
2021/03/01 05:26:35;;;;;;;39.47;20.42;;;5.00;99.90;;;;;;5030538;28;20449;-60
2021/03/01 05:29:04;;;;;;;43.40;21.90;;;5.00;99.90;;;;;;5031159;28;20036;-60
2021/03/01 05:31:29;;;;;;;50.15;25.17;;;5.00;99.90;;;;;;5030627;28;20049;-61
2021/03/01 05:33:55;;;;;;;44.70;24.83;;;4.90;99.90;;;;;;5030520;28;20033;-59
2021/03/01 05:36:21;;;;;;;56.10;25.33;;;4.90;99.90;;;;;;5030349;28;20037;-60
2021/03/01 05:38:47;;;;;;;57.50;27.00;;;4.90;99.90;;;;;;5030894;28;20032;-59
2021/03/01 05:41:16;;;;;;;55.38;28.15;;;4.90;99.90;;;;;;5012604;28;20044;-59
2021/03/01 05:43:42;;;;;;;54.80;28.67;;;4.90;99.90;;;;;;5030173;28;20116;-61
2021/03/01 05:46:08;;;;;;;50.50;25.70;;;4.90;99.90;;;;;;5030052;28;20160;-60
2021/03/01 05:48:34;;;;;;;57.92;29.25;;;4.90;99.90;;;;;;5030622;28;20026;-60
2021/03/01 05:51:03;;;;;;;67.82;29.88;;;4.90;99.90;;;;;;5029928;28;20030;-59
2021/03/01 05:53:31;;;;;;;60.20;29.73;;;4.90;99.90;;;;;;5030475;28;20025;-57
2021/03/01 05:56:00;;;;;;;59.40;30.55;;;5.00;99.90;;;;;;5029721;28;20069;-60
2021/03/01 05:58:27;;;;;;;66.85;30.27;;;4.90;99.90;;;;;;5030478;28;20030;-59
2021/03/01 06:01:01;;;;;;;63.25;32.83;;;4.90;99.90;;;;;;5029969;28;20041;-60
2021/03/01 06:03:34;;;;;;;61.90;29.75;;;4.80;99.90;;;;;;5030380;28;20420;-57
2021/03/01 06:06:00;;;;;;;64.30;32.47;;;4.80;99.90;;;;;;5030071;28;20045;-61
2021/03/01 06:08:26;;;;;;;68.32;33.42;;;4.80;99.90;;;;;;5033557;28;20041;-59
2021/03/01 06:11:04;;;;;;;72.35;36.08;;;4.80;99.90;;;;;;5032904;28;20120;-58
2021/03/01 06:13:30;;;;;;;68.13;35.13;;;4.80;99.90;;;;;;5034681;28;20060;-58
2021/03/01 06:15:57;;;;;;;74.97;34.92;;;4.80;99.90;;;;;;5033494;28;20053;-59
2021/03/01 06:18:24;;;;;;;71.30;36.25;;;4.90;99.90;;;;;;5033998;28;20033;-58
2021/03/01 06:20:52;;;;;;;73.20;34.78;;;4.90;99.90;;;;;;5033444;28;20560;-59
2021/03/01 06:23:34;;;;;;;74.20;37.10;;;4.90;99.90;;;;;;5034149;28;20361;-62
2021/03/01 06:26:20;;;;;;;75.60;36.33;;;4.90;99.90;;;;;;5033818;28;20099;-58
2021/03/01 06:28:48;;;;;;;73.97;36.58;;;5.00;99.90;;;;;;5034651;28;20025;-61
2021/03/01 06:31:35;;;;;;;68.93;35.88;;;5.00;99.90;;;;;;5033173;28;20021;-60
2021/03/01 06:34:26;;;;;;;74.00;36.53;;;5.00;99.90;;;;;;5033520;28;20476;-60
2021/03/01 06:36:58;;;;;;;70.50;35.65;;;5.00;99.90;;;;;;5033607;28;20087;-60
2021/03/01 06:39:31;;;;;;;70.45;35.03;;;5.00;99.90;;;;;;5033608;28;20026;-57
2021/03/01 06:42:18;;;;;;;74.18;36.53;;;5.10;99.90;;;;;;5033254;28;20060;-58
2021/03/01 06:44:46;;;;;;;72.72;38.75;;;5.00;99.90;;;;;;5016052;28;20429;-60
2021/03/01 06:47:12;;;;;;;78.28;41.47;;;5.10;99.90;;;;;;5033091;28;20041;-61
2021/03/01 06:49:40;;;;;;;90.70;39.25;;;4.90;99.90;;;;;;5033774;28;20035;-58
2021/03/01 06:52:07;;;;;;;79.03;41.80;;;4.90;99.90;;;;;;5033265;28;20029;-58
2021/03/01 06:54:32;;;;;;;78.95;40.47;;;5.00;99.90;;;;;;5033175;28;20057;-59
2021/03/01 06:56:58;;;;;;;80.60;39.40;;;5.00;99.90;;;;;;5033221;28;20111;-60
2021/03/01 06:59:24;;;;;;;91.63;44.20;;;4.90;99.90;;;;;;5033761;28;20100;-56
2021/03/01 07:01:55;;;;;;;82.30;40.55;;;4.90;99.90;;;;;;5032680;28;20191;-58
2021/03/01 07:04:26;;;;;;;79.30;40.78;;;4.90;99.90;;;;;;5033144;28;20037;-60
2021/03/01 07:06:56;;;;;;;78.53;40.65;;;4.90;99.90;;;;;;5033159;28;20032;-61
2021/03/01 07:09:28;;;;;;;86.60;43.63;;;4.90;99.90;;;;;;5033165;28;20026;-59
2021/03/01 07:11:54;;;;;;;80.47;41.25;;;4.90;99.90;;;;;;5032958;28;20033;-62
2021/03/01 07:14:26;;;;;;;87.72;43.40;;;4.90;99.90;;;;;;5033211;28;20096;-61
2021/03/01 07:16:54;;;;;;;79.18;40.60;;;5.00;99.90;;;;;;5031451;28;20040;-61
2021/03/01 07:19:21;;;;;;;74.10;40.80;;;5.00;99.90;;;;;;5032264;28;20029;-58
2021/03/01 07:21:50;;;;;;;70.78;38.00;;;5.00;99.90;;;;;;5032758;28;20088;-61
2021/03/01 07:24:18;;;;;;;76.90;38.40;;;5.00;99.90;;;;;;5032514;28;20367;-58
2021/03/01 07:26:45;;;;;;;79.20;36.70;;;5.00;99.90;;;;;;5032155;28;20038;-61
2021/03/01 07:29:15;;;;;;;78.50;38.90;;;5.00;99.90;;;;;;5033559;28;20077;-59
2021/03/01 07:31:47;;;;;;;69.53;36.88;;;5.10;99.90;;;;;;5032349;28;20030;-59
2021/03/01 07:34:15;;;;;;;71.32;36.10;;;5.10;99.90;;;;;;5032667;28;20045;-62
2021/03/01 07:36:41;;;;;;;63.83;34.92;;;5.10;99.90;;;;;;5031941;28;20117;-60
2021/03/01 07:39:09;;;;;;;67.07;34.75;;;5.20;99.90;;;;;;5032795;28;20104;-62
2021/03/01 07:41:35;;;;;;;61.72;33.03;;;5.10;99.90;;;;;;5013616;28;20404;-57
2021/03/01 07:44:02;;;;;;;60.47;32.28;;;5.10;99.90;;;;;;5032583;28;20411;-58
2021/03/01 07:46:39;;;;;;;63.78;31.73;;;5.10;99.90;;;;;;5032403;28;20120;-59
2021/03/01 07:49:05;;;;;;;59.95;33.95;;;5.20;99.90;;;;;;5032281;28;20108;-56
2021/03/01 07:51:45;;;;;;;54.65;30.67;;;5.20;99.90;;;;;;5031935;28;20491;-57
2021/03/01 07:54:13;;;;;;;61.65;31.05;;;5.20;99.90;;;;;;5032740;28;20029;-58
2021/03/01 07:56:39;;;;;;;58.63;30.48;;;5.30;99.90;;;;;;5031446;28;20033;-59
2021/03/01 07:59:09;;;;;;;52.70;30.15;;;5.20;99.90;;;;;;5031542;28;20344;-61
2021/03/01 08:01:36;;;;;;;55.00;29.42;;;5.30;99.90;;;;;;5031466;28;20430;-61
2021/03/01 08:04:03;;;;;;;55.28;28.13;;;5.30;99.90;;;;;;5032078;28;20055;-60
2021/03/01 08:06:57;;;;;;;52.42;27.65;;;5.40;99.90;;;;;;5030309;28;20117;-61
2021/03/01 08:09:49;;;;;;;50.13;27.83;;;5.40;99.90;;;;;;5028037;28;20114;-59
2021/03/01 08:12:36;;;;;;;56.13;28.05;;;5.30;99.90;;;;;;5030427;28;20029;-59
2021/03/01 08:15:04;;;;;;;52.72;28.08;;;5.30;99.90;;;;;;5030750;28;20102;-58
2021/03/01 08:17:32;;;;;;;56.60;28.23;;;5.30;99.90;;;;;;5030742;28;20079;-60
2021/03/01 08:20:19;;;;;;;54.95;28.73;;;5.40;99.90;;;;;;5030251;28;20041;-61
2021/03/01 08:23:06;;;;;;;62.42;30.63;;;5.40;99.90;;;;;;5029324;28;20025;-62
2021/03/01 08:25:44;;;;;;;56.05;28.65;;;5.50;99.90;;;;;;5030153;28;20029;-60
2021/03/01 08:28:32;;;;;;;57.35;29.88;;;5.50;99.90;;;;;;5026920;28;20121;-60
2021/03/01 08:31:20;;;;;;;61.13;29.15;;;5.50;99.90;;;;;;5013781;28;20099;-60
2021/03/01 08:33:46;;;;;;;54.28;28.98;;;5.40;99.90;;;;;;5030989;28;20034;-60
2021/03/01 08:36:14;;;;;;;53.47;27.92;;;5.40;99.90;;;;;;5030069;28;20032;-60
2021/03/01 08:38:43;;;;;;;61.97;31.45;;;5.50;99.90;;;;;;5030112;28;20033;-62
2021/03/01 08:41:10;;;;;;;63.33;30.58;;;5.50;99.90;;;;;;5029667;28;20466;-59
2021/03/01 08:43:40;;;;;;;58.15;29.85;;;5.60;99.90;;;;;;5030735;28;20041;-60
2021/03/01 08:46:26;;;;;;;54.85;29.52;;;5.60;99.90;;;;;;5029665;28;20029;-62
2021/03/01 08:48:56;;;;;;;52.97;27.67;;;5.70;99.90;;;;;;5024480;28;20121;-61
2021/03/01 08:51:22;;;;;;;51.30;29.05;;;5.60;99.90;;;;;;5029725;28;20041;-58
2021/03/01 08:53:51;;;;;;;55.95;29.02;;;5.60;99.90;;;;;;5030347;28;20034;-58
2021/03/01 08:56:24;;;;;;;57.10;29.13;;;5.70;99.90;;;;;;5030332;28;20029;-61
2021/03/01 08:58:50;;;;;;;54.63;28.98;;;5.60;99.90;;;;;;5030896;28;20081;-61
2021/03/01 09:01:16;;;;;;;54.58;27.90;;;5.60;99.90;;;;;;5029587;28;20132;-62
2021/03/01 09:03:43;;;;;;;54.33;28.90;;;5.70;99.90;;;;;;5027706;28;20809;-62
2021/03/01 09:06:10;;;;;;;57.03;28.83;;;5.70;99.90;;;;;;5029976;28;20034;-60
2021/03/01 09:08:44;;;;;;;50.83;26.17;;;5.70;99.90;;;;;;5029941;28;20049;-61
2021/03/01 09:11:30;;;;;;;53.58;27.23;;;5.70;99.90;;;;;;5026791;28;20044;-65
2021/03/01 09:14:01;;;;;;;52.80;27.88;;;5.70;99.90;;;;;;5029261;28;20025;-58
2021/03/01 09:16:28;;;;;;;53.20;28.75;;;5.70;99.90;;;;;;5028388;28;20029;-59
2021/03/01 09:19:02;;;;;;;53.88;28.35;;;5.80;99.90;;;;;;5029952;28;20029;-60
2021/03/01 09:21:30;;;;;;;54.42;28.42;;;5.80;99.90;;;;;;5010347;28;20446;-59
2021/03/01 09:23:57;;;;;;;51.65;27.83;;;5.90;99.90;;;;;;5030599;28;20494;-57
2021/03/01 09:26:31;;;;;;;52.95;27.10;;;5.90;99.90;;;;;;5029887;28;20025;-60
2021/03/01 09:29:05;;;;;;;49.45;25.98;;;5.90;99.90;;;;;;5027715;28;20025;-61
2021/03/01 09:31:45;;;;;;;53.95;27.77;;;6.00;99.90;;;;;;5028559;28;20116;-59
2021/03/01 09:34:15;;;;;;;49.50;25.77;;;6.00;99.90;;;;;;5029458;28;20036;-60
2021/03/01 09:36:47;;;;;;;51.80;27.35;;;6.10;99.90;;;;;;5029441;28;20036;-60
2021/03/01 09:39:16;;;;;;;44.85;24.90;;;6.10;99.90;;;;;;5029681;28;20476;-59
2021/03/01 09:41:42;;;;;;;51.72;26.60;;;6.10;99.90;;;;;;5030280;28;20097;-58
2021/03/01 09:44:09;;;;;;;50.63;26.80;;;6.00;99.90;;;;;;5033404;28;20034;-59
2021/03/01 09:46:36;;;;;;;52.47;28.33;;;6.00;99.90;;;;;;5032757;28;20387;-64
2021/03/01 09:49:06;;;;;;;50.10;26.23;;;6.00;99.90;;;;;;5030508;28;20041;-60
2021/03/01 09:51:34;;;;;;;45.85;26.00;;;6.00;99.90;;;;;;5033327;28;20021;-60
2021/03/01 09:54:02;;;;;;;50.92;25.52;;;6.00;99.90;;;;;;5033833;28;20029;-60
2021/03/01 09:56:45;;;;;;;50.85;28.35;;;6.10;99.90;;;;;;5033053;28;20053;-59
2021/03/01 09:59:12;;;;;;;50.25;27.45;;;6.10;99.90;;;;;;5033559;28;20030;-59
2021/03/01 10:01:38;;;;;;;47.88;25.55;;;6.10;99.90;;;;;;5033174;28;20025;-58
2021/03/01 10:04:04;;;;;;;49.55;25.77;;;6.20;99.90;;;;;;5033317;28;20041;-60
2021/03/01 10:06:36;;;;;;;50.92;27.35;;;6.30;99.90;;;;;;5032199;28;20391;-60
2021/03/01 10:09:11;;;;;;;55.17;29.00;;;6.20;99.90;;;;;;5033656;28;20070;-59
2021/03/01 10:11:38;;;;;;;54.80;27.77;;;6.20;99.90;;;;;;5030414;28;20402;-60
2021/03/01 10:14:10;;;;;;;49.13;26.65;;;6.30;99.90;;;;;;5034875;28;20052;-58
2021/03/01 10:16:40;;;;;;;47.55;25.13;;;6.40;99.90;;;;;;5032582;28;20037;-59
2021/03/01 10:19:14;;;;;;;44.50;25.77;;;6.40;99.90;;;;;;5032364;28;20029;-61
2021/03/01 10:21:40;;;;;;;44.25;26.60;;;6.30;99.90;;;;;;5032096;28;20140;-61
2021/03/01 10:24:08;;;;;;;49.53;27.40;;;6.40;99.90;;;;;;5032151;28;20038;-60
2021/03/01 10:27:04;;;;;;;47.55;27.48;;;6.40;99.90;;;;;;5032126;28;20379;-58
2021/03/01 10:29:31;;;;;;;52.13;27.83;;;6.40;99.90;;;;;;5032784;28;20086;-59
2021/03/01 10:31:58;;;;;;;45.80;25.55;;;6.40;99.90;;;;;;5032500;28;20029;-59
2021/03/01 10:34:36;;;;;;;50.53;26.80;;;6.40;99.90;;;;;;5032697;28;20057;-59
2021/03/01 10:37:03;;;;;;;50.90;26.00;;;6.40;99.90;;;;;;5032387;28;20029;-60
2021/03/01 10:39:32;;;;;;;50.67;27.30;;;6.50;99.90;;;;;;5030384;28;20041;-61
2021/03/01 10:42:03;;;;;;;51.00;26.75;;;6.60;99.90;;;;;;5032290;28;20065;-58
2021/03/01 10:44:31;;;;;;;48.15;26.17;;;6.60;99.90;;;;;;5033090;28;20184;-59
2021/03/01 10:46:56;;;;;;;45.38;25.77;;;6.60;99.90;;;;;;5032001;28;20083;-61
2021/03/01 10:49:30;;;;;;;45.60;24.50;;;6.70;99.90;;;;;;5032880;28;20017;-60
2021/03/01 10:51:58;;;;;;;43.45;25.52;;;6.80;99.90;;;;;;5032253;28;20514;-60
2021/03/01 10:54:27;;;;;;;43.00;24.13;;;6.80;99.90;;;;;;5031092;28;20044;-60
2021/03/01 10:56:54;;;;;;;42.22;24.15;;;6.60;99.90;;;;;;5031138;28;20858;-60
2021/03/01 10:59:20;;;;;;;40.78;25.08;;;6.60;99.90;;;;;;5028380;28;20025;-57
2021/03/01 11:01:47;;;;;;;49.55;25.00;;;6.60;99.90;;;;;;5031385;28;20157;-60
2021/03/01 11:04:15;;;;;;;38.35;21.80;;;6.80;99.90;;;;;;5030054;28;20071;-58
2021/03/01 11:06:41;;;;;;;46.72;24.20;;;6.80;99.90;;;;;;5030640;28;20407;-58
2021/03/01 11:09:10;;;;;;;46.30;22.95;;;6.90;99.90;;;;;;5033011;28;20048;-58
2021/03/01 11:11:36;;;;;;;51.97;22.17;;;6.90;99.90;;;;;;5032624;28;20511;-59
2021/03/01 11:14:03;;;;;;;39.72;22.35;;;6.80;99.90;;;;;;5031834;28;20025;-60
2021/03/01 11:16:28;;;;;;;55.47;22.58;;;6.90;99.90;;;;;;5032562;28;20420;-59
2021/03/01 11:18:54;;;;;;;62.20;24.23;;;7.00;99.90;;;;;;5031483;28;20188;-56
2021/03/01 11:21:20;;;;;;;47.50;24.05;;;7.10;99.90;;;;;;5032005;28;20128;-59
2021/03/01 11:23:46;;;;;;;51.55;24.73;;;7.10;99.90;;;;;;5031422;28;20037;-58
2021/03/01 11:26:14;;;;;;;55.00;25.13;;;7.20;99.90;;;;;;5031119;28;20037;-60
2021/03/01 11:28:40;;;;;;;39.25;23.20;;;7.30;99.90;;;;;;5031314;28;20045;-60
2021/03/01 11:31:06;;;;;;;59.42;24.05;;;7.20;99.90;;;;;;5025046;28;20115;-59
2021/03/01 11:33:32;;;;;;;42.22;22.77;;;7.20;99.90;;;;;;5031835;28;20096;-60
2021/03/01 11:35:58;;;;;;;52.22;21.65;;;7.30;99.90;;;;;;5031668;28;20541;-60
2021/03/01 11:38:25;;;;;;;83.75;23.48;;;7.50;99.90;;;;;;5031150;28;20037;-59
2021/03/01 11:40:52;;;;;;;70.50;23.55;;;7.50;99.90;;;;;;5012607;28;20045;-58
2021/03/01 11:43:18;;;;;;;51.63;23.17;;;7.50;99.90;;;;;;5031892;28;20106;-59
2021/03/01 11:45:44;;;;;;;124.78;28.80;;;7.50;99.90;;;;;;5032515;28;20083;-59
2021/03/01 11:48:13;;;;;;;57.08;25.13;;;7.60;99.90;;;;;;5029494;28;20055;-58
2021/03/01 11:50:40;;;;;;;53.20;24.17;;;7.60;99.90;;;;;;5031584;28;20029;-59
2021/03/01 11:53:06;;;;;;;85.53;26.52;;;7.60;99.90;;;;;;5029663;28;20026;-60
2021/03/01 11:55:32;;;;;;;50.17;24.50;;;7.50;99.90;;;;;;5031408;28;20167;-59
2021/03/01 11:57:58;;;;;;;50.85;24.90;;;7.50;99.90;;;;;;5030923;28;20033;-59
2021/03/01 12:00:24;;;;;;;60.90;23.48;;;7.50;99.90;;;;;;5030855;28;20196;-58
2021/03/01 12:02:49;;;;;;;70.07;25.17;;;7.50;99.90;;;;;;5029857;28;20534;-58
2021/03/01 12:05:15;;;;;;;60.90;24.05;;;7.60;99.90;;;;;;5031812;28;20022;-60
2021/03/01 12:07:41;;;;;;;81.50;25.98;;;7.70;99.90;;;;;;5029533;28;20047;-60
2021/03/01 12:10:07;;;;;;;56.58;23.05;;;7.90;99.90;;;;;;5031459;28;20033;-57
2021/03/01 12:12:34;;;;;;;62.17;23.95;;;8.00;99.90;;;;;;5031597;28;20036;-59
2021/03/01 12:14:59;;;;;;;65.03;24.27;;;8.00;99.90;;;;;;5031415;28;20028;-58
2021/03/01 12:17:25;;;;;;;71.10;26.08;;;8.00;99.90;;;;;;5030295;28;20136;-59
2021/03/01 12:19:51;;;;;;;77.72;26.92;;;8.00;99.90;;;;;;5029492;28;20095;-58
2021/03/01 12:22:17;;;;;;;68.97;27.15;;;8.00;99.90;;;;;;5030082;28;20076;-61
2021/03/01 12:24:43;;;;;;;73.85;26.23;;;8.00;99.90;;;;;;5030888;28;20466;-61
2021/03/01 12:27:08;;;;;;;63.47;25.73;;;8.10;99.90;;;;;;5030749;28;20483;-59
2021/03/01 12:29:34;;;;;;;61.78;25.05;;;8.20;99.90;;;;;;5030975;28;20369;-60
2021/03/01 12:32:00;;;;;;;54.05;24.00;;;8.10;99.90;;;;;;5031323;28;20056;-59
2021/03/01 12:34:25;;;;;;;56.78;25.52;;;8.10;99.90;;;;;;5029629;28;20605;-60
2021/03/01 12:36:51;;;;;;;58.63;24.63;;;8.00;99.90;;;;;;5030651;28;20066;-59
2021/03/01 12:39:17;;;;;;;67.57;23.92;;;7.90;99.90;;;;;;5031366;28;20504;-59
2021/03/01 12:41:43;;;;;;;46.22;22.25;;;7.90;99.90;;;;;;5030956;28;20037;-56
2021/03/01 12:44:10;;;;;;;48.58;21.90;;;8.10;99.90;;;;;;5030262;28;20359;-59
2021/03/01 12:46:35;;;;;;;41.53;18.65;;;8.10;99.90;;;;;;5030967;28;20120;-59
2021/03/01 12:49:01;;;;;;;40.53;18.15;;;8.10;99.90;;;;;;5030691;28;20108;-58